Time;durP1;ratioP1;P1;durP2;ratioP2;P2;SDS_P1;SDS_P2;PMS_P1;PMS_P2;Temp;Humidity;BMP_temperature;BMP_pressure;BME280_temperature;BME280_humidity;BME280_pressure;Samples;Min_cycle;Max_cycle;Signal;HPM_P1;HPM_P2
2023/08/19 00:01:09;;;;;;;13.30;10.93;;;;;;;;;;5013687;28;20444;-77
2023/08/19 00:03:35;;;;;;;17.83;12.18;;;;;;;;;;4995961;28;20475;-75
2023/08/19 00:06:31;;;;;;;16.70;12.13;;;;;;;;;;4995682;28;20389;-76
2023/08/19 00:08:57;;;;;;;13.85;11.88;;;;;;;;;;5008973;28;20055;-76
2023/08/19 00:11:22;;;;;;;13.70;11.23;;;;;;;;;;4996469;28;20390;-76
2023/08/19 00:13:48;;;;;;;18.73;11.57;;;;;;;;;;4996516;28;20022;-76
2023/08/19 00:16:13;;;;;;;18.92;12.52;;;;;;;;;;5013833;28;20046;-77
2023/08/19 00:18:39;;;;;;;15.98;12.27;;;;;;;;;;5013491;28;20100;-77
2023/08/19 00:21:05;;;;;;;17.23;11.68;;;;;;;;;;5012305;28;20053;-77
2023/08/19 00:23:30;;;;;;;13.88;11.20;;;;;;;;;;4995485;28;20064;-77
2023/08/19 00:25:56;;;;;;;14.07;11.13;;;;;;;;;;4995939;28;20030;-77
2023/08/19 00:28:21;;;;;;;14.38;12.20;;;;;;;;;;4995895;28;20053;-77
2023/08/19 00:30:47;;;;;;;16.88;12.23;;;;;;;;;;5013709;28;20030;-77
2023/08/19 00:33:12;;;;;;;14.52;11.65;;;;;;;;;;5013083;28;20022;-77
2023/08/19 00:35:39;;;;;;;15.65;12.55;;;;;;;;;;5014129;28;20022;-76
2023/08/19 00:38:04;;;;;;;15.25;12.57;;;;;;;;;;5014821;28;20111;-76
2023/08/19 00:40:30;;;;;;;13.85;12.40;;;;;;;;;;4995937;28;20568;-76
2023/08/19 00:42:55;;;;;;;15.02;12.07;;;;;;;;;;4996659;28;20034;-76
2023/08/19 00:45:21;;;;;;;15.45;12.45;;;;;;;;;;5012496;28;20409;-76
2023/08/19 00:47:46;;;;;;;19.05;12.55;;;;;;;;;;5014542;28;20025;-76
2023/08/19 00:50:15;;;;;;;13.77;11.82;;;;;;;;;;4998263;28;20379;-77
2023/08/19 00:52:41;;;;;;;13.45;12.00;;;;;;;;;;5000405;28;20554;-76
2023/08/19 00:55:09;;;;;;;16.45;12.38;;;;;;;;;;5019278;28;20120;-75
2023/08/19 00:57:36;;;;;;;14.93;12.68;;;;;;;;;;5019341;28;20085;-76
2023/08/19 01:00:03;;;;;;;16.40;12.55;;;;;;;;;;5001565;28;20033;-77
2023/08/19 01:02:29;;;;;;;18.83;12.60;;;;;;;;;;5004634;28;20077;-76
2023/08/19 01:04:54;;;;;;;15.70;12.55;;;;;;;;;;5000779;28;20786;-77
2023/08/19 01:07:36;;;;;;;15.50;12.43;;;;;;;;;;5013651;28;20474;-77
2023/08/19 01:10:15;;;;;;;14.48;12.48;;;;;;;;;;4994774;28;20060;-76
2023/08/19 01:13:01;;;;;;;13.65;12.07;;;;;;;;;;4994611;28;20386;-76
2023/08/19 01:15:29;;;;;;;17.38;13.07;;;;;;;;;;4993871;28;20050;-76
2023/08/19 01:17:56;;;;;;;17.27;13.02;;;;;;;;;;4994303;28;20486;-76
2023/08/19 01:20:29;;;;;;;15.25;12.40;;;;;;;;;;4994488;28;20033;-76
2023/08/19 01:22:56;;;;;;;16.17;12.73;;;;;;;;;;5032021;28;20025;-76
2023/08/19 01:25:22;;;;;;;16.67;12.02;;;;;;;;;;5014317;28;20087;-77
2023/08/19 01:27:47;;;;;;;15.32;12.98;;;;;;;;;;5032455;28;20389;-76
2023/08/19 01:30:14;;;;;;;17.15;13.15;;;;;;;;;;5015944;28;20025;-75
2023/08/19 01:32:41;;;;;;;19.83;13.60;;;;;;;;;;5015577;28;20033;-77
2023/08/19 01:35:06;;;;;;;18.83;14.32;;;;;;;;;;5014656;28;20029;-76
2023/08/19 01:37:35;;;;;;;16.23;13.15;;;;;;;;;;5014082;28;20421;-77
2023/08/19 01:40:01;;;;;;;15.18;13.57;;;;;;;;;;5010819;28;20107;-77
2023/08/19 01:42:28;;;;;;;17.70;12.45;;;;;;;;;;5012153;28;20109;-76
2023/08/19 01:44:55;;;;;;;18.35;12.80;;;;;;;;;;5011599;28;20038;-76
2023/08/19 01:47:21;;;;;;;17.73;12.93;;;;;;;;;;4994191;28;20417;-77
2023/08/19 01:49:46;;;;;;;20.15;12.85;;;;;;;;;;4994109;28;20498;-77
2023/08/19 01:52:13;;;;;;;16.63;13.23;;;;;;;;;;4993888;28;20080;-77
2023/08/19 01:54:40;;;;;;;17.05;12.95;;;;;;;;;;4994036;28;20482;-76
2023/08/19 01:57:06;;;;;;;16.27;12.60;;;;;;;;;;4994839;28;20037;-77
2023/08/19 01:59:32;;;;;;;17.60;13.52;;;;;;;;;;5010920;28;20030;-76
2023/08/19 02:01:58;;;;;;;16.70;13.00;;;;;;;;;;4994744;28;20064;-76
2023/08/19 02:04:24;;;;;;;17.50;13.13;;;;;;;;;;4993662;28;20080;-78
2023/08/19 02:06:50;;;;;;;16.80;13.30;;;;;;;;;;4994145;28;20379;-76
2023/08/19 02:09:15;;;;;;;17.17;12.90;;;;;;;;;;4994157;28;20606;-77
2023/08/19 02:11:40;;;;;;;16.65;13.45;;;;;;;;;;5011216;28;20033;-77
2023/08/19 02:14:08;;;;;;;18.90;13.75;;;;;;;;;;4993065;28;20029;-77
2023/08/19 02:16:33;;;;;;;15.73;14.07;;;;;;;;;;4993020;28;20136;-76
2023/08/19 02:18:59;;;;;;;35.97;15.20;;;;;;;;;;4993326;28;20092;-75
2023/08/19 02:21:25;;;;;;;20.27;13.93;;;;;;;;;;4992984;28;20026;-76
2023/08/19 02:23:51;;;;;;;15.93;13.43;;;;;;;;;;5010903;28;20033;-76
2023/08/19 02:26:17;;;;;;;15.75;13.15;;;;;;;;;;4993184;28;20513;-76
2023/08/19 02:28:42;;;;;;;16.10;13.60;;;;;;;;;;4993297;28;20025;-76
2023/08/19 02:31:08;;;;;;;14.13;12.60;;;;;;;;;;5010965;28;20034;-77
2023/08/19 02:33:33;;;;;;;25.48;14.88;;;;;;;;;;4993562;28;20477;-76
2023/08/19 02:35:59;;;;;;;15.35;13.18;;;;;;;;;;5010589;28;20514;-76
2023/08/19 02:38:24;;;;;;;15.85;13.23;;;;;;;;;;5014257;28;20080;-77
2023/08/19 02:40:52;;;;;;;19.25;13.73;;;;;;;;;;5013028;28;20038;-77
2023/08/19 02:43:18;;;;;;;15.18;12.70;;;;;;;;;;5012928;28;20454;-77
2023/08/19 02:45:43;;;;;;;19.08;13.73;;;;;;;;;;4995086;28;20053;-78
2023/08/19 02:48:09;;;;;;;17.38;13.85;;;;;;;;;;4993793;28;20029;-77
2023/08/19 02:50:36;;;;;;;15.77;13.32;;;;;;;;;;4994403;28;20022;-77
2023/08/19 02:53:01;;;;;;;16.80;13.57;;;;;;;;;;5011280;28;20083;-78
2023/08/19 02:55:27;;;;;;;15.73;13.68;;;;;;;;;;5009608;28;20030;-77
2023/08/19 02:57:54;;;;;;;17.92;13.70;;;;;;;;;;4993312;28;20022;-77
2023/08/19 03:00:19;;;;;;;19.92;13.35;;;;;;;;;;5011773;28;20033;-77
2023/08/19 03:02:48;;;;;;;17.23;14.02;;;;;;;;;;4994600;28;20022;-76
2023/08/19 03:05:13;;;;;;;16.70;13.85;;;;;;;;;;4996954;28;20686;-76
2023/08/19 03:07:39;;;;;;;17.27;14.43;;;;;;;;;;5014726;28;20034;-77
2023/08/19 03:10:06;;;;;;;18.60;13.88;;;;;;;;;;5014832;28;20072;-77
2023/08/19 03:12:32;;;;;;;17.05;12.95;;;;;;;;;;4996352;28;20072;-77
2023/08/19 03:14:58;;;;;;;17.38;14.55;;;;;;;;;;5012505;28;20058;-76
2023/08/19 03:17:23;;;;;;;16.35;13.82;;;;;;;;;;5012682;28;20033;-78
2023/08/19 03:19:50;;;;;;;19.48;13.52;;;;;;;;;;4996278;28;20034;-75
2023/08/19 03:22:16;;;;;;;18.88;14.05;;;;;;;;;;4996779;28;20084;-78
2023/08/19 03:24:41;;;;;;;22.20;14.77;;;;;;;;;;5012794;28;20026;-77
2023/08/19 03:27:07;;;;;;;15.55;13.85;;;;;;;;;;4997042;28;20040;-76
2023/08/19 03:29:32;;;;;;;20.00;13.82;;;;;;;;;;4996759;28;20017;-76
2023/08/19 03:31:58;;;;;;;20.58;14.30;;;;;;;;;;4996512;28;20113;-76
2023/08/19 03:34:25;;;;;;;21.55;14.23;;;;;;;;;;5013897;28;20036;-77
2023/08/19 03:36:50;;;;;;;17.45;13.32;;;;;;;;;;4996196;28;20025;-77
2023/08/19 03:39:16;;;;;;;18.45;13.18;;;;;;;;;;5013953;28;20443;-76
2023/08/19 03:41:41;;;;;;;18.83;13.73;;;;;;;;;;5013722;28;20474;-77
2023/08/19 03:44:07;;;;;;;17.27;13.15;;;;;;;;;;4996668;28;20398;-76
2023/08/19 03:46:32;;;;;;;17.95;15.43;;;;;;;;;;4996233;28;20129;-77
2023/08/19 03:48:58;;;;;;;26.80;14.73;;;;;;;;;;4996316;28;20117;-76
2023/08/19 03:51:23;;;;;;;42.95;15.45;;;;;;;;;;4996473;28;20036;-77
2023/08/19 03:53:49;;;;;;;19.80;13.88;;;;;;;;;;5013091;28;20364;-76
2023/08/19 03:56:14;;;;;;;23.48;13.60;;;;;;;;;;4996907;28;20096;-77
2023/08/19 03:58:40;;;;;;;25.27;15.50;;;;;;;;;;5014022;28;20030;-76
2023/08/19 04:01:08;;;;;;;18.58;14.43;;;;;;;;;;4996108;28;20128;-77
2023/08/19 04:03:34;;;;;;;20.30;14.13;;;;;;;;;;4996080;28;20416;-77
2023/08/19 04:06:00;;;;;;;20.10;14.57;;;;;;;;;;5014111;28;20112;-76
2023/08/19 04:08:26;;;;;;;22.65;15.50;;;;;;;;;;5013975;28;20030;-78
2023/08/19 04:10:51;;;;;;;20.70;15.25;;;;;;;;;;4996077;28;20165;-77
2023/08/19 04:13:17;;;;;;;19.98;14.27;;;;;;;;;;5013615;28;20030;-77
2023/08/19 04:15:43;;;;;;;22.45;14.88;;;;;;;;;;4995352;28;20050;-77
2023/08/19 04:18:10;;;;;;;19.50;13.95;;;;;;;;;;4996321;28;20044;-76
2023/08/19 04:20:39;;;;;;;21.35;13.43;;;;;;;;;;5013446;28;20022;-76
2023/08/19 04:23:05;;;;;;;19.55;14.43;;;;;;;;;;4995860;28;20033;-77
2023/08/19 04:25:31;;;;;;;15.90;14.20;;;;;;;;;;5012881;28;20096;-77
2023/08/19 04:27:56;;;;;;;18.30;14.02;;;;;;;;;;4996343;28;20026;-77
2023/08/19 04:30:22;;;;;;;21.27;15.48;;;;;;;;;;4995936;28;20121;-77
2023/08/19 04:32:50;;;;;;;16.52;14.07;;;;;;;;;;5013538;28;20026;-76
2023/08/19 04:35:16;;;;;;;17.83;14.45;;;;;;;;;;5015094;28;20401;-76
2023/08/19 04:37:42;;;;;;;23.30;14.45;;;;;;;;;;4996977;28;20462;-75
2023/08/19 04:40:11;;;;;;;17.30;13.40;;;;;;;;;;4997872;28;20029;-75
2023/08/19 04:42:37;;;;;;;20.42;14.10;;;;;;;;;;4996540;28;20037;-77
2023/08/19 04:45:05;;;;;;;16.95;14.52;;;;;;;;;;5013176;28;20034;-76
2023/08/19 04:47:32;;;;;;;22.70;14.25;;;;;;;;;;5013085;28;20104;-77
2023/08/19 04:49:59;;;;;;;18.63;14.30;;;;;;;;;;4994947;28;20042;-77
2023/08/19 04:52:26;;;;;;;16.02;13.18;;;;;;;;;;5013048;28;20064;-76
2023/08/19 04:54:52;;;;;;;21.55;13.88;;;;;;;;;;4995410;28;20370;-76
2023/08/19 04:57:18;;;;;;;22.08;14.90;;;;;;;;;;4995004;28;20120;-76
2023/08/19 04:59:44;;;;;;;18.10;14.27;;;;;;;;;;4994950;28;20120;-76
2023/08/19 05:02:10;;;;;;;20.35;15.40;;;;;;;;;;4995632;28;20022;-76
2023/08/19 05:04:35;;;;;;;19.52;14.55;;;;;;;;;;5012469;28;20026;-77
2023/08/19 05:07:00;;;;;;;17.70;13.70;;;;;;;;;;5012999;28;20056;-77
2023/08/19 05:09:26;;;;;;;18.10;13.60;;;;;;;;;;4996084;28;20068;-76
2023/08/19 05:11:52;;;;;;;19.27;13.65;;;;;;;;;;4997400;28;20029;-76
2023/08/19 05:14:17;;;;;;;18.88;14.85;;;;;;;;;;4998510;28;20116;-76
2023/08/19 05:16:43;;;;;;;21.52;15.02;;;;;;;;;;5013720;28;20053;-76
2023/08/19 05:19:16;;;;;;;16.75;14.05;;;;;;;;;;4997916;28;20030;-76
2023/08/19 05:21:42;;;;;;;17.30;14.45;;;;;;;;;;5012010;28;20080;-76
2023/08/19 05:24:09;;;;;;;23.90;14.82;;;;;;;;;;4994963;28;20496;-76
2023/08/19 05:26:34;;;;;;;19.75;14.40;;;;;;;;;;5012114;28;20513;-77
2023/08/19 05:29:00;;;;;;;20.35;13.77;;;;;;;;;;4994473;28;20029;-77
2023/08/19 05:31:25;;;;;;;70.93;16.80;;;;;;;;;;4994197;28;20076;-78
2023/08/19 05:33:51;;;;;;;23.77;15.00;;;;;;;;;;5011959;28;20055;-77
2023/08/19 05:36:17;;;;;;;32.20;15.40;;;;;;;;;;4994850;28;20462;-76
2023/08/19 05:38:42;;;;;;;17.90;15.10;;;;;;;;;;5012219;28;20030;-76
2023/08/19 05:41:09;;;;;;;24.33;15.02;;;;;;;;;;4994166;28;20026;-76
2023/08/19 05:43:34;;;;;;;20.20;14.13;;;;;;;;;;5010458;28;20109;-76
2023/08/19 05:46:04;;;;;;;16.20;13.43;;;;;;;;;;5011903;28;20113;-77
2023/08/19 05:48:29;;;;;;;21.63;15.13;;;;;;;;;;4994355;28;20022;-78
2023/08/19 05:50:55;;;;;;;15.77;13.98;;;;;;;;;;4995547;28;20029;-77
2023/08/19 05:53:20;;;;;;;19.20;14.25;;;;;;;;;;5012363;28;20026;-77
2023/08/19 05:55:47;;;;;;;19.08;14.77;;;;;;;;;;4994181;28;20500;-77
2023/08/19 05:58:15;;;;;;;18.77;14.88;;;;;;;;;;4994233;28;20513;-77
2023/08/19 06:00:42;;;;;;;23.40;15.25;;;;;;;;;;5012906;28;20034;-76
2023/08/19 06:03:08;;;;;;;22.05;14.30;;;;;;;;;;5010365;28;20093;-76
2023/08/19 06:05:37;;;;;;;18.25;15.48;;;;;;;;;;4994532;28;20057;-76
2023/08/19 06:08:04;;;;;;;18.33;13.98;;;;;;;;;;4993634;28;20088;-77
2023/08/19 06:10:31;;;;;;;23.60;14.80;;;;;;;;;;5009926;28;20032;-77
2023/08/19 06:12:57;;;;;;;18.33;14.55;;;;;;;;;;4993903;28;20112;-75
2023/08/19 06:15:23;;;;;;;17.98;14.10;;;;;;;;;;5012916;28;20133;-76
2023/08/19 06:17:49;;;;;;;19.17;15.23;;;;;;;;;;5011889;28;20533;-76
2023/08/19 06:20:18;;;;;;;18.08;15.05;;;;;;;;;;4996287;28;20022;-76
2023/08/19 06:22:43;;;;;;;19.45;15.38;;;;;;;;;;5012834;28;20076;-76
2023/08/19 06:25:11;;;;;;;16.02;13.80;;;;;;;;;;4994280;28;20068;-78
2023/08/19 06:27:36;;;;;;;19.27;13.50;;;;;;;;;;5011196;28;20046;-75
2023/08/19 06:30:02;;;;;;;18.95;14.20;;;;;;;;;;4994813;28;20435;-78
2023/08/19 06:32:28;;;;;;;15.30;13.68;;;;;;;;;;4995287;28;20084;-77
2023/08/19 06:34:54;;;;;;;17.55;14.25;;;;;;;;;;4993697;28;20071;-76
2023/08/19 06:37:21;;;;;;;17.48;13.85;;;;;;;;;;4993766;28;20472;-76
2023/08/19 06:39:54;;;;;;;22.63;14.70;;;;;;;;;;5011144;28;20030;-77
2023/08/19 06:42:22;;;;;;;19.75;14.50;;;;;;;;;;4995357;28;20148;-77
2023/08/19 06:44:49;;;;;;;24.08;18.00;;;;;;;;;;5011276;28;20142;-77
2023/08/19 06:47:21;;;;;;;20.17;14.32;;;;;;;;;;4992949;28;20053;-77
2023/08/19 06:49:47;;;;;;;18.27;14.65;;;;;;;;;;5010469;28;20417;-76
2023/08/19 06:52:13;;;;;;;19.85;14.35;;;;;;;;;;4993270;28;20080;-76
2023/08/19 06:54:39;;;;;;;16.90;14.05;;;;;;;;;;5009226;28;20033;-76
2023/08/19 06:57:13;;;;;;;17.40;13.90;;;;;;;;;;4992873;28;20474;-77
2023/08/19 06:59:40;;;;;;;18.23;14.95;;;;;;;;;;4993612;28;20518;-77
2023/08/19 07:02:07;;;;;;;18.13;13.85;;;;;;;;;;5009252;28;20124;-77
2023/08/19 07:04:35;;;;;;;16.42;13.88;;;;;;;;;;4992282;28;20070;-78
2023/08/19 07:07:05;;;;;;;16.00;13.90;;;;;;;;;;5010675;28;20037;-77
2023/08/19 07:09:33;;;;;;;16.27;13.43;;;;;;;;;;4992873;28;20048;-78
2023/08/19 07:11:59;;;;;;;19.08;12.93;;;;;;;;;;5010707;28;20025;-77
2023/08/19 07:14:26;;;;;;;15.20;13.27;;;;;;;;;;5008787;28;20044;-77
2023/08/19 07:16:55;;;;;;;18.15;13.75;;;;;;;;;;4993155;28;20037;-77
2023/08/19 07:19:37;;;;;;;15.75;13.43;;;;;;;;;;4993110;28;20603;-77
2023/08/19 07:22:03;;;;;;;63.15;17.10;;;;;;;;;;5009729;28;20052;-76
2023/08/19 07:24:29;;;;;;;16.63;12.57;;;;;;;;;;4993955;28;20021;-77
2023/08/19 07:26:56;;;;;;;21.63;13.98;;;;;;;;;;5012003;28;20471;-77
2023/08/19 07:29:23;;;;;;;20.60;13.48;;;;;;;;;;5011117;28;20025;-77
2023/08/19 07:31:49;;;;;;;19.20;14.05;;;;;;;;;;4993343;28;20038;-78
2023/08/19 07:34:14;;;;;;;14.40;12.55;;;;;;;;;;4994133;28;20128;-78
2023/08/19 07:36:41;;;;;;;25.92;14.55;;;;;;;;;;4994963;28;20064;-76
2023/08/19 07:39:06;;;;;;;39.33;15.82;;;;;;;;;;4996369;28;20056;-75
2023/08/19 07:41:32;;;;;;;18.25;12.75;;;;;;;;;;5012319;28;20029;-77
2023/08/19 07:43:57;;;;;;;20.00;13.00;;;;;;;;;;4995198;28;20029;-77
2023/08/19 07:46:25;;;;;;;16.05;12.30;;;;;;;;;;5010916;28;20036;-76
2023/08/19 07:48:50;;;;;;;21.17;13.38;;;;;;;;;;5011169;28;20026;-78
2023/08/19 07:51:16;;;;;;;14.02;12.52;;;;;;;;;;4996278;28;20378;-77
2023/08/19 07:53:42;;;;;;;17.98;12.55;;;;;;;;;;4996064;28;20120;-78
2023/08/19 07:56:08;;;;;;;15.07;13.07;;;;;;;;;;4997063;28;20044;-77
2023/08/19 07:58:36;;;;;;;22.63;12.38;;;;;;;;;;4996567;28;20445;-77
2023/08/19 08:01:03;;;;;;;21.83;13.55;;;;;;;;;;4996429;28;20037;-76
2023/08/19 08:03:28;;;;;;;18.45;14.00;;;;;;;;;;4996715;28;20033;-77
2023/08/19 08:05:54;;;;;;;14.55;13.07;;;;;;;;;;5013586;28;20014;-78
2023/08/19 08:08:19;;;;;;;16.02;12.82;;;;;;;;;;5013455;28;20026;-77
2023/08/19 08:10:45;;;;;;;14.88;12.77;;;;;;;;;;5013052;28;20095;-77
2023/08/19 08:13:10;;;;;;;18.35;12.13;;;;;;;;;;4995444;28;20022;-77
2023/08/19 08:15:36;;;;;;;13.93;12.35;;;;;;;;;;5012289;28;20061;-77
2023/08/19 08:18:03;;;;;;;16.27;12.23;;;;;;;;;;5012700;28;20034;-77
2023/08/19 08:20:29;;;;;;;19.80;13.43;;;;;;;;;;5014046;28;20161;-76
2023/08/19 08:22:54;;;;;;;18.63;12.90;;;;;;;;;;5013725;28;20104;-76
2023/08/19 08:25:20;;;;;;;14.27;12.75;;;;;;;;;;5011616;28;20357;-77
2023/08/19 08:27:45;;;;;;;15.95;12.88;;;;;;;;;;4995034;28;20022;-76
2023/08/19 08:30:11;;;;;;;15.38;12.30;;;;;;;;;;5011332;28;20038;-76
2023/08/19 08:32:37;;;;;;;14.88;11.43;;;;;;;;;;4994906;28;20025;-76
2023/08/19 08:35:04;;;;;;;14.57;11.55;;;;;;;;;;5012902;28;20529;-77
2023/08/19 08:37:30;;;;;;;15.43;12.18;;;;;;;;;;5011559;28;20125;-77
2023/08/19 08:39:55;;;;;;;14.35;11.23;;;;;;;;;;4995264;28;20091;-77
2023/08/19 08:42:22;;;;;;;13.25;10.88;;;;;;;;;;4995138;28;20034;-76
2023/08/19 08:44:50;;;;;;;12.75;11.25;;;;;;;;;;4994741;28;20521;-77
2023/08/19 08:47:16;;;;;;;14.77;10.30;;;;;;;;;;4995075;28;20029;-77
2023/08/19 08:49:46;;;;;;;12.00;10.80;;;;;;;;;;5012373;28;20458;-77
2023/08/19 08:52:12;;;;;;;13.18;11.32;;;;;;;;;;4995295;28;20038;-77
2023/08/19 08:54:39;;;;;;;13.00;11.20;;;;;;;;;;5012577;28;20033;-77
2023/08/19 08:57:05;;;;;;;13.32;10.82;;;;;;;;;;4995023;28;20037;-76
2023/08/19 08:59:31;;;;;;;12.43;10.82;;;;;;;;;;4995434;28;20022;-77
2023/08/19 09:01:58;;;;;;;10.95;9.82;;;;;;;;;;5010654;28;20046;-78
2023/08/19 09:04:26;;;;;;;11.88;9.35;;;;;;;;;;4995103;28;20026;-77
2023/08/19 09:07:04;;;;;;;16.83;13.73;;;;;;;;;;5011905;28;20049;-78
2023/08/19 09:09:33;;;;;;;10.32;9.32;;;;;;;;;;4994767;28;20108;-77
2023/08/19 09:12:00;;;;;;;12.70;8.98;;;;;;;;;;5010918;28;20052;-78
2023/08/19 09:14:39;;;;;;;12.85;9.43;;;;;;;;;;4994127;28;20522;-76
2023/08/19 09:17:06;;;;;;;15.63;9.63;;;;;;;;;;5012104;28;20038;-76
2023/08/19 09:19:32;;;;;;;14.13;9.45;;;;;;;;;;4994350;28;20033;-77
2023/08/19 09:22:07;;;;;;;25.55;11.18;;;;;;;;;;5010845;28;20033;-76
2023/08/19 09:24:35;;;;;;;11.10;9.35;;;;;;;;;;5013206;28;20105;-77
2023/08/19 09:27:02;;;;;;;18.50;10.77;;;;;;;;;;5014854;28;20034;-76
2023/08/19 09:29:29;;;;;;;15.88;9.93;;;;;;;;;;4998782;28;20049;-76
2023/08/19 09:31:57;;;;;;;14.02;9.00;;;;;;;;;;4998736;28;20029;-76
2023/08/19 09:34:23;;;;;;;13.70;9.20;;;;;;;;;;4997881;28;20044;-77
2023/08/19 09:36:52;;;;;;;12.05;8.95;;;;;;;;;;5013261;28;20490;-76
2023/08/19 09:39:20;;;;;;;9.68;8.23;;;;;;;;;;4994162;28;20659;-77
2023/08/19 09:41:46;;;;;;;9.60;8.20;;;;;;;;;;5012289;28;20037;-77
2023/08/19 09:44:15;;;;;;;9.68;8.25;;;;;;;;;;5012192;28;20030;-77
2023/08/19 09:46:42;;;;;;;11.00;8.60;;;;;;;;;;5011163;28;20030;-76
2023/08/19 09:49:09;;;;;;;11.65;8.50;;;;;;;;;;5013598;28;20510;-77
2023/08/19 09:51:36;;;;;;;10.02;8.27;;;;;;;;;;5011718;28;20041;-77
2023/08/19 09:54:11;;;;;;;9.00;7.68;;;;;;;;;;5013270;28;20101;-77
2023/08/19 09:56:37;;;;;;;10.82;7.18;;;;;;;;;;5013504;28;20112;-76
2023/08/19 09:59:04;;;;;;;10.52;7.28;;;;;;;;;;4995776;28;20112;-76
2023/08/19 10:01:31;;;;;;;10.18;6.90;;;;;;;;;;4995725;28;20022;-76
2023/08/19 10:03:57;;;;;;;8.25;7.45;;;;;;;;;;4997300;28;20029;-76
2023/08/19 10:06:26;;;;;;;7.97;6.55;;;;;;;;;;5017407;28;20049;-76
2023/08/19 10:09:00;;;;;;;11.40;6.90;;;;;;;;;;4996517;28;20014;-78
2023/08/19 10:11:28;;;;;;;10.02;7.03;;;;;;;;;;5014054;28;20037;-76
2023/08/19 10:13:56;;;;;;;7.15;6.55;;;;;;;;;;4995506;28;20041;-76
2023/08/19 10:16:24;;;;;;;6.78;6.10;;;;;;;;;;5013234;28;20057;-76
2023/08/19 10:18:51;;;;;;;9.73;6.63;;;;;;;;;;5012707;28;20022;-76
2023/08/19 10:21:17;;;;;;;9.65;7.05;;;;;;;;;;4994319;28;20034;-76
2023/08/19 10:23:45;;;;;;;13.45;8.25;;;;;;;;;;5011603;28;20053;-79
2023/08/19 10:26:11;;;;;;;7.90;7.13;;;;;;;;;;4994405;28;20030;-76
2023/08/19 10:28:37;;;;;;;7.68;6.80;;;;;;;;;;4994059;28;20014;-76
2023/08/19 10:31:07;;;;;;;9.80;6.88;;;;;;;;;;5010933;28;20022;-76
2023/08/19 10:33:39;;;;;;;7.78;6.05;;;;;;;;;;5011701;28;20123;-76
2023/08/19 10:36:06;;;;;;;7.43;6.60;;;;;;;;;;5011294;28;20026;-77
2023/08/19 10:38:46;;;;;;;9.23;6.45;;;;;;;;;;4993200;28;20044;-77
2023/08/19 10:41:22;;;;;;;7.43;6.80;;;;;;;;;;4993924;28;20030;-76
2023/08/19 10:43:57;;;;;;;9.63;6.97;;;;;;;;;;4993169;28;20030;-76
2023/08/19 10:46:44;;;;;;;7.43;6.65;;;;;;;;;;4992952;28;20467;-76
2023/08/19 10:49:21;;;;;;;7.50;6.70;;;;;;;;;;4992830;28;20029;-76
2023/08/19 10:52:06;;;;;;;6.82;6.18;;;;;;;;;;5010283;28;20026;-77
2023/08/19 10:54:40;;;;;;;6.32;5.78;;;;;;;;;;5010365;28;20049;-76
2023/08/19 10:57:08;;;;;;;8.07;5.75;;;;;;;;;;4992397;28;20030;-76
2023/08/19 10:59:36;;;;;;;9.10;6.53;;;;;;;;;;4993361;28;20088;-77
2023/08/19 11:02:02;;;;;;;11.10;6.20;;;;;;;;;;4992468;28;20061;-77
2023/08/19 11:04:27;;;;;;;9.60;5.65;;;;;;;;;;5009729;28;20044;-76
2023/08/19 11:06:57;;;;;;;8.73;6.78;;;;;;;;;;4992878;28;20026;-77
2023/08/19 11:09:26;;;;;;;7.63;5.75;;;;;;;;;;5010552;28;20466;-77
2023/08/19 11:11:55;;;;;;;6.35;5.82;;;;;;;;;;4992820;28;20068;-76
2023/08/19 11:14:22;;;;;;;23.20;8.43;;;;;;;;;;5010385;28;20433;-76
2023/08/19 11:16:50;;;;;;;8.35;6.18;;;;;;;;;;4992762;28;20042;-79
2023/08/19 11:19:18;;;;;;;8.45;6.18;;;;;;;;;;4993039;28;20037;-77
2023/08/19 11:21:45;;;;;;;6.80;5.90;;;;;;;;;;4993753;28;20038;-76
2023/08/19 11:24:12;;;;;;;8.30;6.90;;;;;;;;;;4994419;28;20104;-76
2023/08/19 11:26:41;;;;;;;7.25;6.03;;;;;;;;;;5013266;28;20053;-77
2023/08/19 11:29:07;;;;;;;7.75;5.70;;;;;;;;;;4996636;28;20371;-77
2023/08/19 11:31:40;;;;;;;11.73;6.30;;;;;;;;;;4996823;28;20055;-77
2023/08/19 11:34:13;;;;;;;8.07;6.28;;;;;;;;;;4997418;28;20043;-77
2023/08/19 11:36:40;;;;;;;7.97;6.30;;;;;;;;;;5014080;28;20145;-76
2023/08/19 11:39:07;;;;;;;13.65;6.90;;;;;;;;;;5013260;28;20026;-77
2023/08/19 11:41:33;;;;;;;7.40;6.60;;;;;;;;;;4997296;28;20026;-78
2023/08/19 11:44:01;;;;;;;7.28;5.43;;;;;;;;;;4996499;28;20034;-76
2023/08/19 11:46:36;;;;;;;9.00;7.95;;;;;;;;;;5013787;28;20394;-77
2023/08/19 11:49:07;;;;;;;9.20;6.28;;;;;;;;;;4995872;28;20022;-76
2023/08/19 11:51:37;;;;;;;8.18;6.03;;;;;;;;;;4995935;28;20171;-75
2023/08/19 11:54:08;;;;;;;6.20;5.47;;;;;;;;;;4996087;28;20029;-77
2023/08/19 11:56:51;;;;;;;6.55;5.95;;;;;;;;;;4996254;28;20457;-76
2023/08/19 11:59:18;;;;;;;8.95;6.10;;;;;;;;;;4996443;28;20037;-76
2023/08/19 12:01:47;;;;;;;6.25;5.38;;;;;;;;;;4996831;28;20030;-75
2023/08/19 12:04:17;;;;;;;6.65;5.90;;;;;;;;;;4996321;28;20140;-78
2023/08/19 12:06:44;;;;;;;8.43;5.20;;;;;;;;;;4995901;28;20053;-76
2023/08/19 12:09:14;;;;;;;6.65;5.55;;;;;;;;;;5014467;28;20029;-78
2023/08/19 12:11:41;;;;;;;7.78;5.28;;;;;;;;;;4996204;28;20029;-77
2023/08/19 12:14:07;;;;;;;5.05;4.60;;;;;;;;;;5013120;28;20038;-78
2023/08/19 12:16:32;;;;;;;6.95;5.00;;;;;;;;;;4997353;28;20068;-74
2023/08/19 12:18:58;;;;;;;6.10;5.03;;;;;;;;;;4998491;28;20034;-77
2023/08/19 12:21:24;;;;;;;5.57;5.07;;;;;;;;;;4998594;28;20026;-75
2023/08/19 12:23:52;;;;;;;6.97;5.35;;;;;;;;;;5017604;28;20045;-76
2023/08/19 12:26:18;;;;;;;5.25;4.75;;;;;;;;;;5014564;28;20030;-76
2023/08/19 12:28:43;;;;;;;13.13;11.50;;;;;;;;;;4998202;28;20028;-76
2023/08/19 12:31:10;;;;;;;6.20;5.30;;;;;;;;;;4997432;28;20018;-76
2023/08/19 12:33:36;;;;;;;7.85;5.35;;;;;;;;;;4997917;28;20117;-77
2023/08/19 12:36:02;;;;;;;8.05;5.53;;;;;;;;;;4996618;28;20026;-76
2023/08/19 12:38:28;;;;;;;6.93;5.35;;;;;;;;;;4997650;28;20176;-77
2023/08/19 12:40:53;;;;;;;6.97;5.15;;;;;;;;;;5014888;28;20076;-77
2023/08/19 12:43:19;;;;;;;8.07;5.53;;;;;;;;;;4997690;28;20133;-77
2023/08/19 12:45:45;;;;;;;6.05;4.90;;;;;;;;;;5012318;28;20474;-76
2023/08/19 12:48:11;;;;;;;5.65;4.78;;;;;;;;;;4995975;28;20029;-76
2023/08/19 12:50:37;;;;;;;6.45;5.15;;;;;;;;;;5012711;28;20042;-77
2023/08/19 12:53:03;;;;;;;10.43;5.63;;;;;;;;;;4995334;28;20033;-77
2023/08/19 12:55:29;;;;;;;8.63;4.70;;;;;;;;;;4995216;28;20037;-77
2023/08/19 12:57:56;;;;;;;12.57;5.07;;;;;;;;;;4995647;28;20036;-77
2023/08/19 13:00:28;;;;;;;5.55;4.70;;;;;;;;;;4994930;28;20033;-76
2023/08/19 13:02:56;;;;;;;5.05;4.32;;;;;;;;;;4994938;28;20083;-77
2023/08/19 13:05:22;;;;;;;11.57;4.30;;;;;;;;;;4994794;28;20034;-77
2023/08/19 13:07:48;;;;;;;6.15;4.10;;;;;;;;;;5012192;28;20406;-77
2023/08/19 13:10:15;;;;;;;5.78;4.35;;;;;;;;;;5012214;28;20022;-77
2023/08/19 13:12:40;;;;;;;6.40;4.25;;;;;;;;;;4994331;28;20025;-76
2023/08/19 13:15:08;;;;;;;4.88;3.83;;;;;;;;;;4994305;28;20498;-77
2023/08/19 13:17:35;;;;;;;3.75;3.33;;;;;;;;;;5010909;28;20034;-77
2023/08/19 13:20:03;;;;;;;6.70;3.63;;;;;;;;;;4995611;28;20041;-76
2023/08/19 13:22:29;;;;;;;3.88;3.30;;;;;;;;;;5011872;28;20041;-79
2023/08/19 13:24:55;;;;;;;3.22;2.85;;;;;;;;;;4995161;28;20026;-77
2023/08/19 13:27:20;;;;;;;3.50;3.20;;;;;;;;;;4995631;28;20048;-79
2023/08/19 13:29:46;;;;;;;3.22;2.83;;;;;;;;;;4997033;28;20414;-78
2023/08/19 13:32:13;;;;;;;4.03;3.17;;;;;;;;;;4998159;28;20037;-79
2023/08/19 13:34:41;;;;;;;5.45;2.92;;;;;;;;;;5014655;28;20056;-78
2023/08/19 13:37:07;;;;;;;9.25;4.30;;;;;;;;;;4999863;28;20052;-79
2023/08/19 13:39:37;;;;;;;3.90;3.60;;;;;;;;;;5016513;28;20053;-79
2023/08/19 13:42:02;;;;;;;;;;;;;;;;;;5004901;28;20028;-78
2023/08/19 13:44:28;;;;;;;4.38;3.97;;;;;;;;;;5019768;28;20302;-79
2023/08/19 13:46:55;;;;;;;4.38;3.78;;;;;;;;;;5005343;28;20124;-79
2023/08/19 13:49:21;;;;;;;4.20;3.70;;;;;;;;;;5004651;28;20029;-78
2023/08/19 13:51:47;;;;;;;4.68;3.72;;;;;;;;;;4999184;28;20029;-79
2023/08/19 13:54:15;;;;;;;4.43;3.95;;;;;;;;;;5012182;28;20037;-78
2023/08/19 13:56:47;;;;;;;4.22;3.83;;;;;;;;;;4994718;28;20025;-82
2023/08/19 13:59:13;;;;;;;7.82;4.07;;;;;;;;;;4994907;28;20709;-78
2023/08/19 14:01:38;;;;;;;6.68;3.97;;;;;;;;;;4993663;28;20121;-77
2023/08/19 14:04:05;;;;;;;3.53;3.20;;;;;;;;;;5010995;28;20026;-78
2023/08/19 14:06:30;;;;;;;6.45;3.97;;;;;;;;;;4993813;28;20078;-79
2023/08/19 14:08:56;;;;;;;4.22;3.50;;;;;;;;;;4993965;28;20041;-79
2023/08/19 14:11:22;;;;;;;3.70;3.45;;;;;;;;;;4994240;28;20119;-79
2023/08/19 14:13:49;;;;;;;5.80;3.40;;;;;;;;;;4993765;28;20026;-79
2023/08/19 14:16:15;;;;;;;6.60;3.67;;;;;;;;;;5009751;28;20478;-79
2023/08/19 14:18:40;;;;;;;4.13;3.60;;;;;;;;;;4993821;28;20041;-79
2023/08/19 14:21:06;;;;;;;3.47;3.17;;;;;;;;;;4993654;28;20048;-79
2023/08/19 14:23:31;;;;;;;4.45;3.22;;;;;;;;;;4993935;28;20545;-79
2023/08/19 14:25:57;;;;;;;4.80;3.40;;;;;;;;;;5011117;28;20022;-79